sensor_id;sensor_type;location;lat;lon;timestamp;temperature;humidity
23073;DHT22;34865;51.046;3.732;2022-11-13T00:02:11;10.30;99.90
23073;DHT22;34865;51.046;3.732;2022-11-13T00:04:36;10.10;99.90
23073;DHT22;34865;51.046;3.732;2022-11-13T00:07:02;10.20;99.90
23073;DHT22;34865;51.046;3.732;2022-11-13T00:09:28;10.30;99.90
23073;DHT22;34865;51.046;3.732;2022-11-13T00:11:53;10.40;99.90
23073;DHT22;34865;51.046;3.732;2022-11-13T00:14:19;10.40;99.90
23073;DHT22;34865;51.046;3.732;2022-11-13T00:16:44;10.60;99.90
23073;DHT22;34865;51.046;3.732;2022-11-13T00:19:10;10.60;99.90
23073;DHT22;34865;51.046;3.732;2022-11-13T00:21:36;10.60;99.90
23073;DHT22;34865;51.046;3.732;2022-11-13T00:24:01;10.60;99.90
23073;DHT22;34865;51.046;3.732;2022-11-13T00:26:28;10.40;99.90
23073;DHT22;34865;51.046;3.732;2022-11-13T00:29:00;10.40;99.90
23073;DHT22;34865;51.046;3.732;2022-11-13T00:31:26;10.40;99.90
23073;DHT22;34865;51.046;3.732;2022-11-13T00:33:52;10.20;99.90
23073;DHT22;34865;51.046;3.732;2022-11-13T00:36:23;10.00;99.90
23073;DHT22;34865;51.046;3.732;2022-11-13T00:38:49;9.90;99.90
23073;DHT22;34865;51.046;3.732;2022-11-13T00:41:14;9.80;99.90
23073;DHT22;34865;51.046;3.732;2022-11-13T00:43:40;9.70;99.90
23073;DHT22;34865;51.046;3.732;2022-11-13T00:46:06;9.70;99.90
23073;DHT22;34865;51.046;3.732;2022-11-13T00:48:32;9.70;99.90
23073;DHT22;34865;51.046;3.732;2022-11-13T00:50:58;9.80;99.90
23073;DHT22;34865;51.046;3.732;2022-11-13T00:53:24;9.90;99.90
23073;DHT22;34865;51.046;3.732;2022-11-13T00:55:50;10.00;99.90
23073;DHT22;34865;51.046;3.732;2022-11-13T00:58:16;10.20;99.90
23073;DHT22;34865;51.046;3.732;2022-11-13T01:00:43;10.20;99.90
23073;DHT22;34865;51.046;3.732;2022-11-13T01:03:10;10.10;99.90
23073;DHT22;34865;51.046;3.732;2022-11-13T01:05:42;10.10;99.90
23073;DHT22;34865;51.046;3.732;2022-11-13T01:08:08;10.10;99.90
23073;DHT22;34865;51.046;3.732;2022-11-13T01:10:39;10.10;99.90
23073;DHT22;34865;51.046;3.732;2022-11-13T01:13:05;10.00;99.90
23073;DHT22;34865;51.046;3.732;2022-11-13T01:15:30;10.00;99.90
23073;DHT22;34865;51.046;3.732;2022-11-13T01:17:56;9.90;99.90
23073;DHT22;34865;51.046;3.732;2022-11-13T01:20:23;10.00;99.90
23073;DHT22;34865;51.046;3.732;2022-11-13T01:22:49;9.90;99.90
23073;DHT22;34865;51.046;3.732;2022-11-13T01:25:15;10.00;99.90
23073;DHT22;34865;51.046;3.732;2022-11-13T01:27:41;9.90;99.90
23073;DHT22;34865;51.046;3.732;2022-11-13T01:30:07;9.80;99.90
23073;DHT22;34865;51.046;3.732;2022-11-13T01:32:33;9.90;99.90
23073;DHT22;34865;51.046;3.732;2022-11-13T01:34:59;9.90;99.90
23073;DHT22;34865;51.046;3.732;2022-11-13T01:37:25;9.80;99.90
23073;DHT22;34865;51.046;3.732;2022-11-13T01:39:50;9.80;99.90
23073;DHT22;34865;51.046;3.732;2022-11-13T01:42:16;9.50;99.90
23073;DHT22;34865;51.046;3.732;2022-11-13T01:44:56;9.60;99.90
23073;DHT22;34865;51.046;3.732;2022-11-13T01:47:24;9.60;99.90
23073;DHT22;34865;51.046;3.732;2022-11-13T01:49:52;9.60;99.90
23073;DHT22;34865;51.046;3.732;2022-11-13T01:52:26;9.50;99.90
23073;DHT22;34865;51.046;3.732;2022-11-13T01:54:56;9.40;99.90
23073;DHT22;34865;51.046;3.732;2022-11-13T01:57:23;9.30;99.90
23073;DHT22;34865;51.046;3.732;2022-11-13T01:59:59;9.40;99.90
23073;DHT22;34865;51.046;3.732;2022-11-13T02:02:26;9.50;99.90
23073;DHT22;34865;51.046;3.732;2022-11-13T02:04:51;9.30;99.90
23073;DHT22;34865;51.046;3.732;2022-11-13T02:07:19;9.20;99.90
23073;DHT22;34865;51.046;3.732;2022-11-13T02:09:55;9.20;99.90
23073;DHT22;34865;51.046;3.732;2022-11-13T02:12:29;9.20;99.90
23073;DHT22;34865;51.046;3.732;2022-11-13T02:14:57;9.30;99.90
23073;DHT22;34865;51.046;3.732;2022-11-13T02:17:31;9.40;99.90
23073;DHT22;34865;51.046;3.732;2022-11-13T02:20:00;9.20;99.90
23073;DHT22;34865;51.046;3.732;2022-11-13T02:22:35;9.10;99.90
23073;DHT22;34865;51.046;3.732;2022-11-13T02:25:03;9.00;99.90
23073;DHT22;34865;51.046;3.732;2022-11-13T02:32:47;9.00;99.90
23073;DHT22;34865;51.046;3.732;2022-11-13T02:35:15;9.00;99.90
23073;DHT22;34865;51.046;3.732;2022-11-13T02:37:41;8.90;99.90
23073;DHT22;34865;51.046;3.732;2022-11-13T02:40:07;8.80;99.90
23073;DHT22;34865;51.046;3.732;2022-11-13T02:42:33;8.80;99.90
23073;DHT22;34865;51.046;3.732;2022-11-13T02:44:59;8.90;99.90
23073;DHT22;34865;51.046;3.732;2022-11-13T02:47:25;9.20;99.90
23073;DHT22;34865;51.046;3.732;2022-11-13T02:49:51;9.40;99.90
23073;DHT22;34865;51.046;3.732;2022-11-13T02:52:17;9.60;99.90
23073;DHT22;34865;51.046;3.732;2022-11-13T02:54:42;9.50;99.90
23073;DHT22;34865;51.046;3.732;2022-11-13T02:57:08;9.60;99.90
23073;DHT22;34865;51.046;3.732;2022-11-13T02:59:33;9.40;99.90
23073;DHT22;34865;51.046;3.732;2022-11-13T03:01:59;9.10;99.90
23073;DHT22;34865;51.046;3.732;2022-11-13T03:04:25;8.90;99.90
23073;DHT22;34865;51.046;3.732;2022-11-13T03:06:50;8.80;99.90
23073;DHT22;34865;51.046;3.732;2022-11-13T03:09:16;8.90;99.90
23073;DHT22;34865;51.046;3.732;2022-11-13T03:11:43;8.90;99.90
23073;DHT22;34865;51.046;3.732;2022-11-13T03:14:08;8.90;99.90
23073;DHT22;34865;51.046;3.732;2022-11-13T03:16:34;8.90;99.90
23073;DHT22;34865;51.046;3.732;2022-11-13T03:19:00;9.30;99.90
23073;DHT22;34865;51.046;3.732;2022-11-13T03:21:26;9.40;99.90
23073;DHT22;34865;51.046;3.732;2022-11-13T03:23:53;9.40;99.90
23073;DHT22;34865;51.046;3.732;2022-11-13T03:26:18;9.30;99.90
23073;DHT22;34865;51.046;3.732;2022-11-13T03:28:44;9.20;99.90
23073;DHT22;34865;51.046;3.732;2022-11-13T03:31:10;9.10;99.90
23073;DHT22;34865;51.046;3.732;2022-11-13T03:33:36;9.30;99.90
23073;DHT22;34865;51.046;3.732;2022-11-13T03:36:03;9.10;99.90
23073;DHT22;34865;51.046;3.732;2022-11-13T03:38:29;9.20;99.90
23073;DHT22;34865;51.046;3.732;2022-11-13T03:40:54;9.40;99.90
23073;DHT22;34865;51.046;3.732;2022-11-13T03:43:20;9.50;99.90
23073;DHT22;34865;51.046;3.732;2022-11-13T03:45:47;9.50;99.90
23073;DHT22;34865;51.046;3.732;2022-11-13T03:48:13;9.50;99.90
23073;DHT22;34865;51.046;3.732;2022-11-13T03:50:44;9.50;99.90
23073;DHT22;34865;51.046;3.732;2022-11-13T03:53:10;9.30;99.90
23073;DHT22;34865;51.046;3.732;2022-11-13T03:55:36;9.40;99.90
23073;DHT22;34865;51.046;3.732;2022-11-13T03:58:01;9.30;99.90
23073;DHT22;34865;51.046;3.732;2022-11-13T04:00:27;9.30;99.90
23073;DHT22;34865;51.046;3.732;2022-11-13T04:02:53;9.40;99.90
23073;DHT22;34865;51.046;3.732;2022-11-13T04:05:18;9.10;99.90
23073;DHT22;34865;51.046;3.732;2022-11-13T04:07:44;8.60;99.90
23073;DHT22;34865;51.046;3.732;2022-11-13T04:10:10;8.60;99.90
23073;DHT22;34865;51.046;3.732;2022-11-13T04:12:35;8.60;99.90
23073;DHT22;34865;51.046;3.732;2022-11-13T04:15:01;8.50;99.90
23073;DHT22;34865;51.046;3.732;2022-11-13T04:17:26;8.50;99.90
23073;DHT22;34865;51.046;3.732;2022-11-13T04:19:52;8.60;99.90
23073;DHT22;34865;51.046;3.732;2022-11-13T04:22:17;8.60;99.90
23073;DHT22;34865;51.046;3.732;2022-11-13T04:24:43;8.80;99.90
23073;DHT22;34865;51.046;3.732;2022-11-13T04:27:10;8.60;99.90
23073;DHT22;34865;51.046;3.732;2022-11-13T04:29:35;8.70;99.90
23073;DHT22;34865;51.046;3.732;2022-11-13T04:32:01;8.80;99.90
23073;DHT22;34865;51.046;3.732;2022-11-13T04:34:26;8.70;99.90
23073;DHT22;34865;51.046;3.732;2022-11-13T04:36:52;8.40;99.90
23073;DHT22;34865;51.046;3.732;2022-11-13T04:39:17;8.30;99.90
23073;DHT22;34865;51.046;3.732;2022-11-13T04:41:43;8.50;99.90
23073;DHT22;34865;51.046;3.732;2022-11-13T04:44:27;8.60;99.90
23073;DHT22;34865;51.046;3.732;2022-11-13T04:46:53;8.70;99.90
23073;DHT22;34865;51.046;3.732;2022-11-13T04:49:18;8.60;99.90
23073;DHT22;34865;51.046;3.732;2022-11-13T04:51:44;8.70;99.90
23073;DHT22;34865;51.046;3.732;2022-11-13T04:54:09;8.40;99.90
23073;DHT22;34865;51.046;3.732;2022-11-13T04:56:35;8.20;99.90
23073;DHT22;34865;51.046;3.732;2022-11-13T04:59:00;8.20;99.90
23073;DHT22;34865;51.046;3.732;2022-11-13T05:01:26;8.40;99.90
23073;DHT22;34865;51.046;3.732;2022-11-13T05:03:52;8.60;99.90
23073;DHT22;34865;51.046;3.732;2022-11-13T05:06:17;8.50;99.90
23073;DHT22;34865;51.046;3.732;2022-11-13T05:08:43;8.50;99.90
23073;DHT22;34865;51.046;3.732;2022-11-13T05:11:08;8.50;99.90
23073;DHT22;34865;51.046;3.732;2022-11-13T05:13:35;8.80;99.90
23073;DHT22;34865;51.046;3.732;2022-11-13T05:16:06;8.70;99.90
23073;DHT22;34865;51.046;3.732;2022-11-13T05:18:33;8.60;99.90
23073;DHT22;34865;51.046;3.732;2022-11-13T05:20:58;8.60;99.90
23073;DHT22;34865;51.046;3.732;2022-11-13T05:23:24;8.40;99.90
23073;DHT22;34865;51.046;3.732;2022-11-13T05:25:51;8.30;99.90
23073;DHT22;34865;51.046;3.732;2022-11-13T05:28:16;8.50;99.90
23073;DHT22;34865;51.046;3.732;2022-11-13T05:30:42;8.70;99.90
23073;DHT22;34865;51.046;3.732;2022-11-13T05:33:08;8.90;99.90
23073;DHT22;34865;51.046;3.732;2022-11-13T05:35:34;9.10;99.90
23073;DHT22;34865;51.046;3.732;2022-11-13T05:38:00;9.30;99.90
23073;DHT22;34865;51.046;3.732;2022-11-13T05:40:27;9.10;99.90
23073;DHT22;34865;51.046;3.732;2022-11-13T05:42:56;8.90;99.90
23073;DHT22;34865;51.046;3.732;2022-11-13T05:45:22;8.90;99.90
23073;DHT22;34865;51.046;3.732;2022-11-13T05:47:47;8.90;99.90
23073;DHT22;34865;51.046;3.732;2022-11-13T05:50:15;9.10;99.90
23073;DHT22;34865;51.046;3.732;2022-11-13T05:52:41;9.10;99.90
23073;DHT22;34865;51.046;3.732;2022-11-13T05:55:07;9.10;99.90
23073;DHT22;34865;51.046;3.732;2022-11-13T05:57:32;9.00;99.90
23073;DHT22;34865;51.046;3.732;2022-11-13T05:59:58;9.00;99.90
23073;DHT22;34865;51.046;3.732;2022-11-13T06:02:24;8.80;99.90
23073;DHT22;34865;51.046;3.732;2022-11-13T06:04:49;8.60;99.90
23073;DHT22;34865;51.046;3.732;2022-11-13T06:07:15;8.70;99.90
23073;DHT22;34865;51.046;3.732;2022-11-13T06:09:40;8.60;99.90
23073;DHT22;34865;51.046;3.732;2022-11-13T06:12:06;8.50;99.90
23073;DHT22;34865;51.046;3.732;2022-11-13T06:14:32;8.50;99.90
23073;DHT22;34865;51.046;3.732;2022-11-13T06:16:57;8.70;99.90
23073;DHT22;34865;51.046;3.732;2022-11-13T06:19:23;8.40;99.90
23073;DHT22;34865;51.046;3.732;2022-11-13T06:21:49;7.90;99.90
23073;DHT22;34865;51.046;3.732;2022-11-13T06:24:14;8.00;99.90
23073;DHT22;34865;51.046;3.732;2022-11-13T06:26:40;7.80;99.90
23073;DHT22;34865;51.046;3.732;2022-11-13T06:29:08;7.90;99.90
23073;DHT22;34865;51.046;3.732;2022-11-13T06:31:35;7.70;99.90
23073;DHT22;34865;51.046;3.732;2022-11-13T06:34:01;7.50;99.90
23073;DHT22;34865;51.046;3.732;2022-11-13T06:36:30;7.40;99.90
23073;DHT22;34865;51.046;3.732;2022-11-13T06:38:57;7.20;99.90
23073;DHT22;34865;51.046;3.732;2022-11-13T06:41:25;7.20;99.90
23073;DHT22;34865;51.046;3.732;2022-11-13T06:43:51;7.50;99.90
23073;DHT22;34865;51.046;3.732;2022-11-13T06:46:19;7.60;99.90
23073;DHT22;34865;51.046;3.732;2022-11-13T06:48:45;7.60;99.90
23073;DHT22;34865;51.046;3.732;2022-11-13T06:51:18;7.40;99.90
23073;DHT22;34865;51.046;3.732;2022-11-13T06:53:44;7.30;99.90
23073;DHT22;34865;51.046;3.732;2022-11-13T06:56:10;7.30;99.90
23073;DHT22;34865;51.046;3.732;2022-11-13T06:58:36;7.20;99.90
23073;DHT22;34865;51.046;3.732;2022-11-13T07:01:13;7.30;99.90
23073;DHT22;34865;51.046;3.732;2022-11-13T07:03:39;7.50;99.90
23073;DHT22;34865;51.046;3.732;2022-11-13T07:06:07;7.70;99.90
23073;DHT22;34865;51.046;3.732;2022-11-13T07:08:34;7.50;99.90
23073;DHT22;34865;51.046;3.732;2022-11-13T07:11:00;7.70;99.90
23073;DHT22;34865;51.046;3.732;2022-11-13T07:13:26;7.90;99.90
23073;DHT22;34865;51.046;3.732;2022-11-13T07:15:52;8.10;99.90
23073;DHT22;34865;51.046;3.732;2022-11-13T07:18:18;8.10;99.90
23073;DHT22;34865;51.046;3.732;2022-11-13T07:20:44;8.20;99.90
23073;DHT22;34865;51.046;3.732;2022-11-13T07:23:10;8.50;99.90
23073;DHT22;34865;51.046;3.732;2022-11-13T07:25:35;8.60;99.90
23073;DHT22;34865;51.046;3.732;2022-11-13T07:28:01;8.60;99.90
23073;DHT22;34865;51.046;3.732;2022-11-13T07:30:27;8.60;99.90
23073;DHT22;34865;51.046;3.732;2022-11-13T07:32:52;8.60;99.90
23073;DHT22;34865;51.046;3.732;2022-11-13T07:35:18;8.60;99.90
23073;DHT22;34865;51.046;3.732;2022-11-13T07:37:44;8.70;99.90
23073;DHT22;34865;51.046;3.732;2022-11-13T07:40:10;8.70;99.90
23073;DHT22;34865;51.046;3.732;2022-11-13T07:42:37;8.90;99.90
23073;DHT22;34865;51.046;3.732;2022-11-13T07:45:03;9.00;99.90
23073;DHT22;34865;51.046;3.732;2022-11-13T07:47:29;9.00;99.90
23073;DHT22;34865;51.046;3.732;2022-11-13T07:49:55;8.80;99.90
23073;DHT22;34865;51.046;3.732;2022-11-13T07:52:20;8.40;99.90
23073;DHT22;34865;51.046;3.732;2022-11-13T07:54:46;8.10;99.90
23073;DHT22;34865;51.046;3.732;2022-11-13T07:57:12;7.90;99.90
23073;DHT22;34865;51.046;3.732;2022-11-13T07:59:38;7.80;99.90
23073;DHT22;34865;51.046;3.732;2022-11-13T08:02:04;7.80;99.90
23073;DHT22;34865;51.046;3.732;2022-11-13T08:04:29;8.10;99.90
23073;DHT22;34865;51.046;3.732;2022-11-13T08:06:55;7.90;99.90
23073;DHT22;34865;51.046;3.732;2022-11-13T08:09:21;7.90;99.90
23073;DHT22;34865;51.046;3.732;2022-11-13T08:11:47;8.00;99.90
23073;DHT22;34865;51.046;3.732;2022-11-13T08:14:12;8.10;99.90
23073;DHT22;34865;51.046;3.732;2022-11-13T08:16:38;8.30;99.90
23073;DHT22;34865;51.046;3.732;2022-11-13T08:19:04;8.70;99.90
23073;DHT22;34865;51.046;3.732;2022-11-13T08:21:29;9.00;99.90
23073;DHT22;34865;51.046;3.732;2022-11-13T08:23:55;9.20;99.90
23073;DHT22;34865;51.046;3.732;2022-11-13T08:26:21;9.40;99.90
23073;DHT22;34865;51.046;3.732;2022-11-13T08:28:47;9.50;99.90
23073;DHT22;34865;51.046;3.732;2022-11-13T08:31:14;9.70;99.90
23073;DHT22;34865;51.046;3.732;2022-11-13T08:33:42;9.80;99.90
23073;DHT22;34865;51.046;3.732;2022-11-13T08:36:08;9.80;99.90
23073;DHT22;34865;51.046;3.732;2022-11-13T08:38:34;9.40;99.90
23073;DHT22;34865;51.046;3.732;2022-11-13T08:41:01;9.40;99.90
23073;DHT22;34865;51.046;3.732;2022-11-13T08:43:27;9.50;99.90
23073;DHT22;34865;51.046;3.732;2022-11-13T08:45:53;9.80;99.90
23073;DHT22;34865;51.046;3.732;2022-11-13T08:48:20;9.80;99.90
23073;DHT22;34865;51.046;3.732;2022-11-13T08:50:49;9.90;99.90
23073;DHT22;34865;51.046;3.732;2022-11-13T08:53:15;10.20;99.90
23073;DHT22;34865;51.046;3.732;2022-11-13T08:55:40;10.00;99.90
23073;DHT22;34865;51.046;3.732;2022-11-13T08:58:06;10.00;99.90
23073;DHT22;34865;51.046;3.732;2022-11-13T09:00:31;9.90;99.90
23073;DHT22;34865;51.046;3.732;2022-11-13T09:02:59;9.90;99.90
23073;DHT22;34865;51.046;3.732;2022-11-13T09:05:25;10.00;99.90
23073;DHT22;34865;51.046;3.732;2022-11-13T09:07:54;9.90;99.90
23073;DHT22;34865;51.046;3.732;2022-11-13T09:10:20;9.90;99.90
23073;DHT22;34865;51.046;3.732;2022-11-13T09:12:45;10.00;99.90
23073;DHT22;34865;51.046;3.732;2022-11-13T09:15:11;10.20;99.90
23073;DHT22;34865;51.046;3.732;2022-11-13T09:17:37;10.20;99.90
23073;DHT22;34865;51.046;3.732;2022-11-13T09:20:03;10.40;99.90
23073;DHT22;34865;51.046;3.732;2022-11-13T09:22:32;10.40;99.90
23073;DHT22;34865;51.046;3.732;2022-11-13T09:24:57;10.40;99.90
23073;DHT22;34865;51.046;3.732;2022-11-13T09:27:23;10.90;99.90
23073;DHT22;34865;51.046;3.732;2022-11-13T09:29:48;11.90;99.90
23073;DHT22;34865;51.046;3.732;2022-11-13T09:32:15;12.70;99.90
23073;DHT22;34865;51.046;3.732;2022-11-13T09:34:40;12.80;99.90
23073;DHT22;34865;51.046;3.732;2022-11-13T09:37:06;13.20;99.90
23073;DHT22;34865;51.046;3.732;2022-11-13T09:39:32;13.20;99.90
23073;DHT22;34865;51.046;3.732;2022-11-13T09:42:04;12.60;99.90
23073;DHT22;34865;51.046;3.732;2022-11-13T09:44:51;12.60;99.90
23073;DHT22;34865;51.046;3.732;2022-11-13T09:47:39;12.50;99.90
23073;DHT22;34865;51.046;3.732;2022-11-13T09:52:41;12.80;99.90
23073;DHT22;34865;51.046;3.732;2022-11-13T09:55:12;13.00;99.90
23073;DHT22;34865;51.046;3.732;2022-11-13T10:00:12;12.70;99.90
23073;DHT22;34865;51.046;3.732;2022-11-13T10:05:49;12.40;99.90
23073;DHT22;34865;51.046;3.732;2022-11-13T10:08:35;12.00;99.90
23073;DHT22;34865;51.046;3.732;2022-11-13T10:11:20;11.80;99.90
23073;DHT22;34865;51.046;3.732;2022-11-13T10:14:22;11.50;99.90
23073;DHT22;34865;51.046;3.732;2022-11-13T10:17:07;11.30;99.90
23073;DHT22;34865;51.046;3.732;2022-11-13T10:19:46;11.50;99.90
23073;DHT22;34865;51.046;3.732;2022-11-13T10:22:53;11.70;99.90
23073;DHT22;34865;51.046;3.732;2022-11-13T10:25:22;11.50;99.90
23073;DHT22;34865;51.046;3.732;2022-11-13T10:27:57;11.40;99.90
23073;DHT22;34865;51.046;3.732;2022-11-13T10:30:23;11.30;99.90
23073;DHT22;34865;51.046;3.732;2022-11-13T10:32:49;11.60;99.90
23073;DHT22;34865;51.046;3.732;2022-11-13T10:35:30;11.70;99.90
23073;DHT22;34865;51.046;3.732;2022-11-13T10:38:15;11.60;99.90
23073;DHT22;34865;51.046;3.732;2022-11-13T10:40:42;11.80;99.90
23073;DHT22;34865;51.046;3.732;2022-11-13T10:43:19;11.70;99.90
23073;DHT22;34865;51.046;3.732;2022-11-13T10:46:00;11.90;99.90
23073;DHT22;34865;51.046;3.732;2022-11-13T10:48:31;11.50;99.90
23073;DHT22;34865;51.046;3.732;2022-11-13T10:51:03;11.40;99.90
23073;DHT22;34865;51.046;3.732;2022-11-13T10:53:47;11.40;99.90
23073;DHT22;34865;51.046;3.732;2022-11-13T10:56:31;11.50;99.90
23073;DHT22;34865;51.046;3.732;2022-11-13T11:01:26;11.40;99.90
23073;DHT22;34865;51.046;3.732;2022-11-13T11:03:51;11.50;99.90
23073;DHT22;34865;51.046;3.732;2022-11-13T11:06:17;11.70;99.90
23073;DHT22;34865;51.046;3.732;2022-11-13T11:08:43;11.70;99.90
23073;DHT22;34865;51.046;3.732;2022-11-13T11:11:16;11.70;99.90
23073;DHT22;34865;51.046;3.732;2022-11-13T11:14:28;12.00;99.90
23073;DHT22;34865;51.046;3.732;2022-11-13T11:16:54;12.30;99.90
23073;DHT22;34865;51.046;3.732;2022-11-13T11:19:24;12.30;99.90
23073;DHT22;34865;51.046;3.732;2022-11-13T11:22:03;12.40;99.90
23073;DHT22;34865;51.046;3.732;2022-11-13T11:24:35;12.60;99.90
23073;DHT22;34865;51.046;3.732;2022-11-13T11:29:53;12.80;99.90
23073;DHT22;34865;51.046;3.732;2022-11-13T11:34:59;13.50;99.90
23073;DHT22;34865;51.046;3.732;2022-11-13T11:37:32;13.40;99.90
23073;DHT22;34865;51.046;3.732;2022-11-13T11:40:02;13.40;99.90
23073;DHT22;34865;51.046;3.732;2022-11-13T11:47:35;13.70;99.90
23073;DHT22;34865;51.046;3.732;2022-11-13T11:50:03;13.70;99.90
23073;DHT22;34865;51.046;3.732;2022-11-13T11:53:04;13.80;99.90
23073;DHT22;34865;51.046;3.732;2022-11-13T12:00:49;13.80;99.90
23073;DHT22;34865;51.046;3.732;2022-11-13T12:08:28;14.20;99.90
23073;DHT22;34865;51.046;3.732;2022-11-13T12:11:18;14.30;99.90
23073;DHT22;34865;51.046;3.732;2022-11-13T12:14:26;14.60;99.90
23073;DHT22;34865;51.046;3.732;2022-11-13T12:17:20;14.80;99.90
23073;DHT22;34865;51.046;3.732;2022-11-13T12:36:47;14.50;99.90
23073;DHT22;34865;51.046;3.732;2022-11-13T12:39:37;14.50;99.90
23073;DHT22;34865;51.046;3.732;2022-11-13T12:42:12;14.30;99.90
23073;DHT22;34865;51.046;3.732;2022-11-13T12:47:40;14.50;99.90
23073;DHT22;34865;51.046;3.732;2022-11-13T12:50:27;14.50;99.90
23073;DHT22;34865;51.046;3.732;2022-11-13T12:53:01;14.20;99.90
23073;DHT22;34865;51.046;3.732;2022-11-13T12:55:30;14.10;99.90
23073;DHT22;34865;51.046;3.732;2022-11-13T12:58:22;14.20;99.90
23073;DHT22;34865;51.046;3.732;2022-11-13T13:17:18;14.30;99.90
23073;DHT22;34865;51.046;3.732;2022-11-13T13:19:44;14.60;99.90
23073;DHT22;34865;51.046;3.732;2022-11-13T13:22:28;14.60;99.90
23073;DHT22;34865;51.046;3.732;2022-11-13T13:25:06;14.70;99.90
23073;DHT22;34865;51.046;3.732;2022-11-13T13:27:36;14.70;99.90
23073;DHT22;34865;51.046;3.732;2022-11-13T13:30:21;14.80;99.90
23073;DHT22;34865;51.046;3.732;2022-11-13T13:33:21;14.60;99.90
23073;DHT22;34865;51.046;3.732;2022-11-13T13:36:13;14.60;99.90
23073;DHT22;34865;51.046;3.732;2022-11-13T13:38:42;14.60;99.90
23073;DHT22;34865;51.046;3.732;2022-11-13T13:44:00;14.50;99.90
23073;DHT22;34865;51.046;3.732;2022-11-13T13:46:30;14.40;99.90
23073;DHT22;34865;51.046;3.732;2022-11-13T13:49:02;14.30;99.90
23073;DHT22;34865;51.046;3.732;2022-11-13T13:51:41;14.40;99.90
23073;DHT22;34865;51.046;3.732;2022-11-13T13:54:11;14.50;99.90
23073;DHT22;34865;51.046;3.732;2022-11-13T13:56:40;14.60;99.90
23073;DHT22;34865;51.046;3.732;2022-11-13T13:59:18;14.60;99.90
23073;DHT22;34865;51.046;3.732;2022-11-13T14:01:58;14.60;99.90
23073;DHT22;34865;51.046;3.732;2022-11-13T14:04:27;14.50;99.90
23073;DHT22;34865;51.046;3.732;2022-11-13T14:06:57;14.50;99.90
23073;DHT22;34865;51.046;3.732;2022-11-13T14:09:26;14.40;99.90
23073;DHT22;34865;51.046;3.732;2022-11-13T14:12:03;14.40;99.90
23073;DHT22;34865;51.046;3.732;2022-11-13T14:14:30;14.40;99.90
23073;DHT22;34865;51.046;3.732;2022-11-13T14:16:57;14.40;99.90
23073;DHT22;34865;51.046;3.732;2022-11-13T14:19:25;14.50;99.90
23073;DHT22;34865;51.046;3.732;2022-11-13T14:21:59;14.50;99.90
23073;DHT22;34865;51.046;3.732;2022-11-13T14:24:29;14.50;99.90
23073;DHT22;34865;51.046;3.732;2022-11-13T14:27:03;14.60;99.90
23073;DHT22;34865;51.046;3.732;2022-11-13T14:32:02;14.60;99.90
23073;DHT22;34865;51.046;3.732;2022-11-13T14:34:29;14.50;99.90
23073;DHT22;34865;51.046;3.732;2022-11-13T14:37:03;14.50;99.90
23073;DHT22;34865;51.046;3.732;2022-11-13T14:39:31;14.50;99.90
23073;DHT22;34865;51.046;3.732;2022-11-13T14:41:59;14.50;99.90
23073;DHT22;34865;51.046;3.732;2022-11-13T14:44:31;14.50;99.90
23073;DHT22;34865;51.046;3.732;2022-11-13T14:47:05;14.50;99.90
23073;DHT22;34865;51.046;3.732;2022-11-13T14:49:36;14.50;99.90
23073;DHT22;34865;51.046;3.732;2022-11-13T14:52:02;14.50;99.90
23073;DHT22;34865;51.046;3.732;2022-11-13T14:54:29;14.50;99.90
23073;DHT22;34865;51.046;3.732;2022-11-13T14:57:09;14.40;99.90
23073;DHT22;34865;51.046;3.732;2022-11-13T14:59:36;14.30;99.90
23073;DHT22;34865;51.046;3.732;2022-11-13T15:02:02;14.50;99.90
23073;DHT22;34865;51.046;3.732;2022-11-13T15:04:28;14.50;99.90
23073;DHT22;34865;51.046;3.732;2022-11-13T15:06:57;14.40;99.90
23073;DHT22;34865;51.046;3.732;2022-11-13T15:09:24;14.30;99.90
23073;DHT22;34865;51.046;3.732;2022-11-13T15:11:50;14.20;99.90
23073;DHT22;34865;51.046;3.732;2022-11-13T15:14:17;14.40;99.90
23073;DHT22;34865;51.046;3.732;2022-11-13T15:16:44;14.20;99.90
23073;DHT22;34865;51.046;3.732;2022-11-13T15:19:30;14.20;99.90
23073;DHT22;34865;51.046;3.732;2022-11-13T15:21:59;14.20;99.90
23073;DHT22;34865;51.046;3.732;2022-11-13T15:24:24;14.10;99.90
23073;DHT22;34865;51.046;3.732;2022-11-13T15:26:50;14.00;99.90
23073;DHT22;34865;51.046;3.732;2022-11-13T15:29:16;14.10;99.90
23073;DHT22;34865;51.046;3.732;2022-11-13T15:31:43;14.30;99.90
23073;DHT22;34865;51.046;3.732;2022-11-13T15:34:13;14.30;99.90
23073;DHT22;34865;51.046;3.732;2022-11-13T15:36:39;14.30;99.90
23073;DHT22;34865;51.046;3.732;2022-11-13T15:39:06;14.20;99.90
23073;DHT22;34865;51.046;3.732;2022-11-13T15:41:33;14.20;99.90
23073;DHT22;34865;51.046;3.732;2022-11-13T15:44:00;14.20;99.90
23073;DHT22;34865;51.046;3.732;2022-11-13T15:46:26;14.10;99.90
23073;DHT22;34865;51.046;3.732;2022-11-13T15:48:52;14.00;99.90
23073;DHT22;34865;51.046;3.732;2022-11-13T15:53:54;14.00;99.90
23073;DHT22;34865;51.046;3.732;2022-11-13T15:56:22;13.90;99.90
23073;DHT22;34865;51.046;3.732;2022-11-13T15:58:49;14.00;99.90
23073;DHT22;34865;51.046;3.732;2022-11-13T16:01:15;14.00;99.90
23073;DHT22;34865;51.046;3.732;2022-11-13T16:03:41;14.00;99.90
23073;DHT22;34865;51.046;3.732;2022-11-13T16:06:10;13.90;99.90
23073;DHT22;34865;51.046;3.732;2022-11-13T16:08:36;13.80;99.90
23073;DHT22;34865;51.046;3.732;2022-11-13T16:11:02;13.80;99.90
23073;DHT22;34865;51.046;3.732;2022-11-13T16:13:28;13.80;99.90
23073;DHT22;34865;51.046;3.732;2022-11-13T16:15:53;13.80;99.90
23073;DHT22;34865;51.046;3.732;2022-11-13T16:18:23;13.70;99.90
23073;DHT22;34865;51.046;3.732;2022-11-13T16:20:49;13.70;99.90
23073;DHT22;34865;51.046;3.732;2022-11-13T16:23:16;13.60;99.90
23073;DHT22;34865;51.046;3.732;2022-11-13T16:25:43;13.60;99.90
23073;DHT22;34865;51.046;3.732;2022-11-13T16:28:16;13.60;99.90
23073;DHT22;34865;51.046;3.732;2022-11-13T16:30:42;13.40;99.90
23073;DHT22;34865;51.046;3.732;2022-11-13T16:33:08;13.40;99.90
23073;DHT22;34865;51.046;3.732;2022-11-13T16:35:34;13.40;99.90
23073;DHT22;34865;51.046;3.732;2022-11-13T16:38:01;13.20;99.90
23073;DHT22;34865;51.046;3.732;2022-11-13T16:40:26;13.20;99.90
23073;DHT22;34865;51.046;3.732;2022-11-13T16:42:52;13.20;99.90
23073;DHT22;34865;51.046;3.732;2022-11-13T16:45:19;13.10;99.90
23073;DHT22;34865;51.046;3.732;2022-11-13T16:47:48;13.00;99.90
23073;DHT22;34865;51.046;3.732;2022-11-13T16:50:27;13.00;99.90
23073;DHT22;34865;51.046;3.732;2022-11-13T16:52:53;13.00;99.90
23073;DHT22;34865;51.046;3.732;2022-11-13T16:55:18;12.90;99.90
23073;DHT22;34865;51.046;3.732;2022-11-13T16:57:44;12.80;99.90
23073;DHT22;34865;51.046;3.732;2022-11-13T17:00:14;12.90;99.90
23073;DHT22;34865;51.046;3.732;2022-11-13T17:02:41;13.00;99.90
23073;DHT22;34865;51.046;3.732;2022-11-13T17:05:13;13.00;99.90
23073;DHT22;34865;51.046;3.732;2022-11-13T17:07:39;13.20;99.90
23073;DHT22;34865;51.046;3.732;2022-11-13T17:10:05;13.20;99.90